sensor_id;sensor_type;location;lat;lon;timestamp;P1;durP1;ratioP1;P2;durP2;ratioP2
40995;SDS011;26723;57.478;12.066;2022-07-22T00:00:25;36.88;;;29.25;;
40995;SDS011;26723;57.478;12.066;2022-07-22T00:03:34;35.22;;;29.45;;
40995;SDS011;26723;57.478;12.066;2022-07-22T00:06:43;35.92;;;27.95;;
40995;SDS011;26723;57.478;12.066;2022-07-22T00:09:52;35.97;;;28.65;;
40995;SDS011;26723;57.478;12.066;2022-07-22T00:13:00;31.73;;;27.77;;
40995;SDS011;26723;57.478;12.066;2022-07-22T00:16:08;31.48;;;28.08;;
40995;SDS011;26723;57.478;12.066;2022-07-22T00:19:17;34.53;;;28.10;;
40995;SDS011;26723;57.478;12.066;2022-07-22T00:22:26;34.42;;;28.33;;
40995;SDS011;26723;57.478;12.066;2022-07-22T00:25:34;35.35;;;28.13;;
40995;SDS011;26723;57.478;12.066;2022-07-22T00:28:43;32.35;;;27.35;;
40995;SDS011;26723;57.478;12.066;2022-07-22T00:31:51;37.33;;;28.20;;
40995;SDS011;26723;57.478;12.066;2022-07-22T00:34:59;35.65;;;27.63;;
40995;SDS011;26723;57.478;12.066;2022-07-22T00:38:09;34.05;;;27.05;;
40995;SDS011;26723;57.478;12.066;2022-07-22T00:41:17;36.60;;;25.85;;
40995;SDS011;26723;57.478;12.066;2022-07-22T00:44:25;34.28;;;26.50;;
40995;SDS011;26723;57.478;12.066;2022-07-22T00:47:38;30.45;;;24.50;;
40995;SDS011;26723;57.478;12.066;2022-07-22T00:50:46;32.80;;;21.35;;
40995;SDS011;26723;57.478;12.066;2022-07-22T00:53:56;27.15;;;18.27;;
40995;SDS011;26723;57.478;12.066;2022-07-22T00:57:05;21.25;;;16.80;;
40995;SDS011;26723;57.478;12.066;2022-07-22T01:00:16;23.15;;;16.27;;
40995;SDS011;26723;57.478;12.066;2022-07-22T01:03:26;24.80;;;15.13;;
40995;SDS011;26723;57.478;12.066;2022-07-22T01:06:35;19.92;;;13.65;;
40995;SDS011;26723;57.478;12.066;2022-07-22T01:09:44;19.27;;;12.52;;
40995;SDS011;26723;57.478;12.066;2022-07-22T01:12:53;17.55;;;10.15;;
40995;SDS011;26723;57.478;12.066;2022-07-22T01:16:01;14.13;;;8.38;;
40995;SDS011;26723;57.478;12.066;2022-07-22T01:19:10;14.45;;;8.40;;
40995;SDS011;26723;57.478;12.066;2022-07-22T01:22:20;14.57;;;7.68;;
40995;SDS011;26723;57.478;12.066;2022-07-22T01:25:28;13.48;;;6.45;;
40995;SDS011;26723;57.478;12.066;2022-07-22T01:28:36;10.88;;;6.13;;
40995;SDS011;26723;57.478;12.066;2022-07-22T01:31:45;9.82;;;6.07;;
40995;SDS011;26723;57.478;12.066;2022-07-22T01:34:53;13.52;;;6.55;;
40995;SDS011;26723;57.478;12.066;2022-07-22T01:38:03;8.95;;;6.10;;
40995;SDS011;26723;57.478;12.066;2022-07-22T01:41:11;12.52;;;5.50;;
40995;SDS011;26723;57.478;12.066;2022-07-22T01:44:20;13.00;;;5.30;;
40995;SDS011;26723;57.478;12.066;2022-07-22T01:47:28;15.35;;;5.55;;
40995;SDS011;26723;57.478;12.066;2022-07-22T01:50:37;10.18;;;4.82;;
40995;SDS011;26723;57.478;12.066;2022-07-22T01:53:46;11.23;;;5.47;;
40995;SDS011;26723;57.478;12.066;2022-07-22T01:56:54;11.73;;;4.68;;
40995;SDS011;26723;57.478;12.066;2022-07-22T02:00:04;14.63;;;5.32;;
40995;SDS011;26723;57.478;12.066;2022-07-22T02:03:21;8.20;;;4.68;;
40995;SDS011;26723;57.478;12.066;2022-07-22T02:06:30;14.07;;;4.97;;
40995;SDS011;26723;57.478;12.066;2022-07-22T02:09:40;9.52;;;4.30;;
40995;SDS011;26723;57.478;12.066;2022-07-22T02:12:49;12.63;;;5.20;;
40995;SDS011;26723;57.478;12.066;2022-07-22T02:15:57;12.75;;;5.38;;
40995;SDS011;26723;57.478;12.066;2022-07-22T02:19:06;11.32;;;4.70;;
40995;SDS011;26723;57.478;12.066;2022-07-22T02:22:14;14.85;;;5.00;;
40995;SDS011;26723;57.478;12.066;2022-07-22T02:25:26;11.80;;;5.60;;
40995;SDS011;26723;57.478;12.066;2022-07-22T02:28:36;12.68;;;5.10;;
40995;SDS011;26723;57.478;12.066;2022-07-22T02:31:44;15.73;;;4.80;;
40995;SDS011;26723;57.478;12.066;2022-07-22T02:34:53;16.77;;;5.13;;
40995;SDS011;26723;57.478;12.066;2022-07-22T02:38:01;14.77;;;5.03;;
40995;SDS011;26723;57.478;12.066;2022-07-22T02:41:12;18.58;;;4.95;;
40995;SDS011;26723;57.478;12.066;2022-07-22T02:44:27;13.65;;;5.55;;
40995;SDS011;26723;57.478;12.066;2022-07-22T02:47:44;15.18;;;5.32;;
40995;SDS011;26723;57.478;12.066;2022-07-22T02:50:56;12.38;;;4.82;;
40995;SDS011;26723;57.478;12.066;2022-07-22T02:54:07;15.82;;;5.43;;
40995;SDS011;26723;57.478;12.066;2022-07-22T02:57:16;14.93;;;5.30;;
40995;SDS011;26723;57.478;12.066;2022-07-22T03:00:26;13.18;;;4.88;;
40995;SDS011;26723;57.478;12.066;2022-07-22T03:03:34;13.80;;;5.00;;
40995;SDS011;26723;57.478;12.066;2022-07-22T03:06:42;10.70;;;5.10;;
40995;SDS011;26723;57.478;12.066;2022-07-22T03:09:57;13.43;;;5.43;;
40995;SDS011;26723;57.478;12.066;2022-07-22T03:13:10;10.82;;;4.78;;
40995;SDS011;26723;57.478;12.066;2022-07-22T03:16:19;10.48;;;4.60;;
40995;SDS011;26723;57.478;12.066;2022-07-22T03:19:27;8.60;;;4.70;;
40995;SDS011;26723;57.478;12.066;2022-07-22T03:22:36;15.07;;;4.97;;
40995;SDS011;26723;57.478;12.066;2022-07-22T03:25:44;13.45;;;5.22;;
40995;SDS011;26723;57.478;12.066;2022-07-22T03:28:54;16.55;;;5.57;;
40995;SDS011;26723;57.478;12.066;2022-07-22T03:32:03;13.77;;;5.25;;
40995;SDS011;26723;57.478;12.066;2022-07-22T03:35:23;15.23;;;5.25;;
40995;SDS011;26723;57.478;12.066;2022-07-22T03:38:32;11.73;;;5.05;;
40995;SDS011;26723;57.478;12.066;2022-07-22T03:41:41;14.27;;;5.32;;
40995;SDS011;26723;57.478;12.066;2022-07-22T03:44:51;12.32;;;5.22;;
40995;SDS011;26723;57.478;12.066;2022-07-22T03:47:59;12.35;;;5.25;;
40995;SDS011;26723;57.478;12.066;2022-07-22T03:51:13;11.65;;;5.22;;
40995;SDS011;26723;57.478;12.066;2022-07-22T03:54:23;12.85;;;5.75;;
40995;SDS011;26723;57.478;12.066;2022-07-22T03:57:31;12.38;;;5.30;;
40995;SDS011;26723;57.478;12.066;2022-07-22T04:00:47;10.98;;;5.30;;
40995;SDS011;26723;57.478;12.066;2022-07-22T04:03:55;10.48;;;5.53;;
40995;SDS011;26723;57.478;12.066;2022-07-22T04:07:16;9.02;;;5.10;;
40995;SDS011;26723;57.478;12.066;2022-07-22T04:10:24;10.23;;;5.38;;
40995;SDS011;26723;57.478;12.066;2022-07-22T04:13:33;9.38;;;4.95;;
40995;SDS011;26723;57.478;12.066;2022-07-22T04:16:43;11.25;;;5.43;;
40995;SDS011;26723;57.478;12.066;2022-07-22T04:19:52;10.10;;;4.78;;
40995;SDS011;26723;57.478;12.066;2022-07-22T04:23:04;13.27;;;5.20;;
40995;SDS011;26723;57.478;12.066;2022-07-22T04:26:12;13.45;;;5.60;;
40995;SDS011;26723;57.478;12.066;2022-07-22T04:29:20;11.20;;;4.97;;
40995;SDS011;26723;57.478;12.066;2022-07-22T04:32:30;9.05;;;4.93;;
40995;SDS011;26723;57.478;12.066;2022-07-22T04:35:38;12.82;;;4.97;;
40995;SDS011;26723;57.478;12.066;2022-07-22T04:38:58;11.85;;;5.10;;
40995;SDS011;26723;57.478;12.066;2022-07-22T04:42:07;8.02;;;4.78;;
40995;SDS011;26723;57.478;12.066;2022-07-22T04:45:16;9.25;;;4.57;;
40995;SDS011;26723;57.478;12.066;2022-07-22T04:48:26;8.20;;;4.70;;
40995;SDS011;26723;57.478;12.066;2022-07-22T04:51:34;12.02;;;5.15;;
40995;SDS011;26723;57.478;12.066;2022-07-22T04:54:45;9.65;;;5.03;;
40995;SDS011;26723;57.478;12.066;2022-07-22T04:57:53;11.88;;;4.43;;
40995;SDS011;26723;57.478;12.066;2022-07-22T05:01:01;9.30;;;4.40;;
40995;SDS011;26723;57.478;12.066;2022-07-22T05:04:11;8.48;;;4.30;;
40995;SDS011;26723;57.478;12.066;2022-07-22T05:07:22;9.27;;;4.80;;
40995;SDS011;26723;57.478;12.066;2022-07-22T05:10:31;7.53;;;4.25;;
40995;SDS011;26723;57.478;12.066;2022-07-22T05:13:39;8.57;;;4.63;;
40995;SDS011;26723;57.478;12.066;2022-07-22T05:16:48;7.20;;;4.60;;
40995;SDS011;26723;57.478;12.066;2022-07-22T05:19:58;7.72;;;4.53;;
40995;SDS011;26723;57.478;12.066;2022-07-22T05:23:06;6.63;;;3.97;;
40995;SDS011;26723;57.478;12.066;2022-07-22T05:26:16;6.90;;;4.20;;
40995;SDS011;26723;57.478;12.066;2022-07-22T05:29:25;7.45;;;4.10;;
40995;SDS011;26723;57.478;12.066;2022-07-22T05:32:34;7.78;;;4.65;;
40995;SDS011;26723;57.478;12.066;2022-07-22T05:35:45;7.72;;;4.30;;
40995;SDS011;26723;57.478;12.066;2022-07-22T05:38:53;8.68;;;4.30;;
40995;SDS011;26723;57.478;12.066;2022-07-22T05:42:02;10.23;;;4.50;;
40995;SDS011;26723;57.478;12.066;2022-07-22T05:45:11;6.95;;;4.13;;
40995;SDS011;26723;57.478;12.066;2022-07-22T05:48:19;7.97;;;4.53;;
40995;SDS011;26723;57.478;12.066;2022-07-22T05:51:29;6.97;;;4.78;;
40995;SDS011;26723;57.478;12.066;2022-07-22T05:54:37;8.63;;;4.30;;
40995;SDS011;26723;57.478;12.066;2022-07-22T05:57:46;7.85;;;3.97;;
40995;SDS011;26723;57.478;12.066;2022-07-22T06:00:54;7.38;;;4.20;;
40995;SDS011;26723;57.478;12.066;2022-07-22T06:04:03;9.95;;;4.68;;
40995;SDS011;26723;57.478;12.066;2022-07-22T06:07:13;8.00;;;4.68;;
40995;SDS011;26723;57.478;12.066;2022-07-22T06:10:23;9.52;;;5.03;;
40995;SDS011;26723;57.478;12.066;2022-07-22T06:13:32;11.95;;;4.57;;
40995;SDS011;26723;57.478;12.066;2022-07-22T06:16:41;9.85;;;4.28;;
40995;SDS011;26723;57.478;12.066;2022-07-22T06:19:49;10.98;;;4.95;;
40995;SDS011;26723;57.478;12.066;2022-07-22T06:23:06;9.35;;;4.18;;
40995;SDS011;26723;57.478;12.066;2022-07-22T06:26:15;9.20;;;4.13;;
40995;SDS011;26723;57.478;12.066;2022-07-22T06:29:23;7.30;;;4.28;;
40995;SDS011;26723;57.478;12.066;2022-07-22T06:32:32;8.88;;;4.78;;
40995;SDS011;26723;57.478;12.066;2022-07-22T06:35:40;9.73;;;4.35;;
40995;SDS011;26723;57.478;12.066;2022-07-22T06:38:50;10.45;;;4.57;;
40995;SDS011;26723;57.478;12.066;2022-07-22T06:41:59;9.10;;;4.40;;
40995;SDS011;26723;57.478;12.066;2022-07-22T06:45:37;9.10;;;3.97;;
40995;SDS011;26723;57.478;12.066;2022-07-22T06:48:57;11.20;;;4.22;;
40995;SDS011;26723;57.478;12.066;2022-07-22T06:52:09;9.75;;;4.60;;
40995;SDS011;26723;57.478;12.066;2022-07-22T06:55:18;9.70;;;4.25;;
40995;SDS011;26723;57.478;12.066;2022-07-22T06:58:37;10.63;;;4.40;;
40995;SDS011;26723;57.478;12.066;2022-07-22T07:01:46;9.07;;;4.28;;
40995;SDS011;26723;57.478;12.066;2022-07-22T07:04:56;14.02;;;4.90;;
40995;SDS011;26723;57.478;12.066;2022-07-22T07:08:04;10.25;;;4.38;;
40995;SDS011;26723;57.478;12.066;2022-07-22T07:11:14;6.72;;;4.20;;
40995;SDS011;26723;57.478;12.066;2022-07-22T07:14:23;6.63;;;3.95;;
40995;SDS011;26723;57.478;12.066;2022-07-22T07:17:32;9.13;;;4.43;;
40995;SDS011;26723;57.478;12.066;2022-07-22T07:20:42;6.07;;;4.28;;
40995;SDS011;26723;57.478;12.066;2022-07-22T07:23:52;7.30;;;4.30;;
40995;SDS011;26723;57.478;12.066;2022-07-22T07:27:04;8.68;;;4.55;;
40995;SDS011;26723;57.478;12.066;2022-07-22T07:30:13;8.45;;;4.68;;
40995;SDS011;26723;57.478;12.066;2022-07-22T07:33:21;7.07;;;4.85;;
40995;SDS011;26723;57.478;12.066;2022-07-22T07:36:31;11.88;;;4.43;;
40995;SDS011;26723;57.478;12.066;2022-07-22T07:39:39;9.48;;;4.20;;
40995;SDS011;26723;57.478;12.066;2022-07-22T07:42:49;8.98;;;4.93;;
40995;SDS011;26723;57.478;12.066;2022-07-22T07:46:07;9.85;;;4.60;;
40995;SDS011;26723;57.478;12.066;2022-07-22T07:49:16;9.38;;;4.50;;
40995;SDS011;26723;57.478;12.066;2022-07-22T07:52:24;12.77;;;4.55;;
40995;SDS011;26723;57.478;12.066;2022-07-22T07:55:33;9.57;;;4.63;;
40995;SDS011;26723;57.478;12.066;2022-07-22T07:58:46;13.70;;;4.43;;
40995;SDS011;26723;57.478;12.066;2022-07-22T08:02:14;13.23;;;4.65;;
40995;SDS011;26723;57.478;12.066;2022-07-22T08:05:24;11.18;;;4.43;;
40995;SDS011;26723;57.478;12.066;2022-07-22T08:08:33;6.10;;;4.07;;
40995;SDS011;26723;57.478;12.066;2022-07-22T08:11:48;9.73;;;4.65;;
40995;SDS011;26723;57.478;12.066;2022-07-22T08:15:08;8.70;;;4.55;;
40995;SDS011;26723;57.478;12.066;2022-07-22T08:18:29;6.72;;;3.10;;
40995;SDS011;26723;57.478;12.066;2022-07-22T08:21:38;6.70;;;3.58;;
40995;SDS011;26723;57.478;12.066;2022-07-22T08:25:09;11.43;;;3.45;;
40995;SDS011;26723;57.478;12.066;2022-07-22T08:28:18;13.30;;;4.57;;
40995;SDS011;26723;57.478;12.066;2022-07-22T08:31:28;11.48;;;4.25;;
40995;SDS011;26723;57.478;12.066;2022-07-22T08:34:42;11.98;;;4.32;;
40995;SDS011;26723;57.478;12.066;2022-07-22T08:37:50;13.45;;;4.00;;
40995;SDS011;26723;57.478;12.066;2022-07-22T08:41:00;13.13;;;4.18;;
40995;SDS011;26723;57.478;12.066;2022-07-22T08:44:11;10.88;;;3.95;;
40995;SDS011;26723;57.478;12.066;2022-07-22T08:47:21;11.10;;;4.43;;
40995;SDS011;26723;57.478;12.066;2022-07-22T08:50:57;11.77;;;3.50;;
40995;SDS011;26723;57.478;12.066;2022-07-22T08:54:13;10.68;;;4.05;;
40995;SDS011;26723;57.478;12.066;2022-07-22T08:57:21;8.70;;;3.67;;
40995;SDS011;26723;57.478;12.066;2022-07-22T09:00:30;13.23;;;3.85;;
40995;SDS011;26723;57.478;12.066;2022-07-22T09:03:45;11.85;;;4.18;;
40995;SDS011;26723;57.478;12.066;2022-07-22T09:06:56;10.85;;;3.58;;
40995;SDS011;26723;57.478;12.066;2022-07-22T09:10:06;7.57;;;3.42;;
40995;SDS011;26723;57.478;12.066;2022-07-22T09:13:16;9.18;;;3.63;;
40995;SDS011;26723;57.478;12.066;2022-07-22T09:16:38;11.13;;;3.50;;
40995;SDS011;26723;57.478;12.066;2022-07-22T09:20:16;11.27;;;4.00;;
40995;SDS011;26723;57.478;12.066;2022-07-22T09:23:51;16.30;;;4.22;;
40995;SDS011;26723;57.478;12.066;2022-07-22T09:26:59;7.93;;;3.10;;
40995;SDS011;26723;57.478;12.066;2022-07-22T09:30:28;15.10;;;4.05;;
40995;SDS011;26723;57.478;12.066;2022-07-22T09:33:46;11.10;;;3.92;;
40995;SDS011;26723;57.478;12.066;2022-07-22T09:37:02;12.32;;;3.42;;
40995;SDS011;26723;57.478;12.066;2022-07-22T09:40:11;13.93;;;3.95;;
40995;SDS011;26723;57.478;12.066;2022-07-22T09:43:21;10.77;;;3.58;;
40995;SDS011;26723;57.478;12.066;2022-07-22T09:46:34;16.50;;;3.80;;
40995;SDS011;26723;57.478;12.066;2022-07-22T09:50:13;10.15;;;3.30;;
40995;SDS011;26723;57.478;12.066;2022-07-22T09:53:44;14.45;;;3.70;;
40995;SDS011;26723;57.478;12.066;2022-07-22T09:56:55;10.50;;;3.42;;
40995;SDS011;26723;57.478;12.066;2022-07-22T10:00:04;13.73;;;3.78;;
40995;SDS011;26723;57.478;12.066;2022-07-22T10:03:23;9.13;;;3.30;;
40995;SDS011;26723;57.478;12.066;2022-07-22T10:06:36;12.57;;;3.88;;
40995;SDS011;26723;57.478;12.066;2022-07-22T10:09:51;8.90;;;3.42;;
40995;SDS011;26723;57.478;12.066;2022-07-22T10:13:02;10.43;;;3.42;;
40995;SDS011;26723;57.478;12.066;2022-07-22T10:16:11;9.77;;;3.10;;
40995;SDS011;26723;57.478;12.066;2022-07-22T10:19:20;12.93;;;3.30;;
40995;SDS011;26723;57.478;12.066;2022-07-22T10:26:13;9.98;;;3.60;;
40995;SDS011;26723;57.478;12.066;2022-07-22T10:29:24;13.23;;;4.00;;
40995;SDS011;26723;57.478;12.066;2022-07-22T10:32:34;13.35;;;3.45;;
40995;SDS011;26723;57.478;12.066;2022-07-22T10:35:53;10.40;;;3.33;;
40995;SDS011;26723;57.478;12.066;2022-07-22T10:39:06;9.50;;;3.05;;
40995;SDS011;26723;57.478;12.066;2022-07-22T10:42:21;11.70;;;3.50;;
40995;SDS011;26723;57.478;12.066;2022-07-22T10:46:13;15.35;;;3.70;;
40995;SDS011;26723;57.478;12.066;2022-07-22T10:49:25;10.35;;;3.05;;
40995;SDS011;26723;57.478;12.066;2022-07-22T10:52:38;9.07;;;3.33;;
40995;SDS011;26723;57.478;12.066;2022-07-22T10:56:01;12.20;;;3.38;;
40995;SDS011;26723;57.478;12.066;2022-07-22T10:59:19;9.73;;;3.22;;
40995;SDS011;26723;57.478;12.066;2022-07-22T11:02:32;7.28;;;2.88;;
40995;SDS011;26723;57.478;12.066;2022-07-22T11:05:45;10.45;;;3.30;;
40995;SDS011;26723;57.478;12.066;2022-07-22T11:08:58;8.85;;;3.25;;
40995;SDS011;26723;57.478;12.066;2022-07-22T11:12:15;8.35;;;2.92;;
40995;SDS011;26723;57.478;12.066;2022-07-22T11:15:29;8.93;;;3.33;;
40995;SDS011;26723;57.478;12.066;2022-07-22T11:18:45;7.43;;;2.88;;
40995;SDS011;26723;57.478;12.066;2022-07-22T11:21:58;12.13;;;3.67;;
40995;SDS011;26723;57.478;12.066;2022-07-22T11:25:13;10.40;;;3.13;;
40995;SDS011;26723;57.478;12.066;2022-07-22T11:28:26;9.05;;;3.55;;
40995;SDS011;26723;57.478;12.066;2022-07-22T11:31:40;10.02;;;3.30;;
40995;SDS011;26723;57.478;12.066;2022-07-22T11:34:53;6.93;;;2.85;;
40995;SDS011;26723;57.478;12.066;2022-07-22T11:38:05;10.77;;;3.45;;
40995;SDS011;26723;57.478;12.066;2022-07-22T11:41:17;9.52;;;3.50;;
40995;SDS011;26723;57.478;12.066;2022-07-22T11:44:33;9.35;;;3.33;;
40995;SDS011;26723;57.478;12.066;2022-07-22T11:47:50;6.10;;;3.30;;
40995;SDS011;26723;57.478;12.066;2022-07-22T11:51:00;11.93;;;3.47;;
40995;SDS011;26723;57.478;12.066;2022-07-22T11:54:09;9.07;;;3.05;;
40995;SDS011;26723;57.478;12.066;2022-07-22T11:57:19;8.70;;;3.17;;
40995;SDS011;26723;57.478;12.066;2022-07-22T12:00:31;8.48;;;3.30;;
40995;SDS011;26723;57.478;12.066;2022-07-22T12:03:43;10.40;;;3.17;;
40995;SDS011;26723;57.478;12.066;2022-07-22T12:06:54;11.77;;;3.35;;
40995;SDS011;26723;57.478;12.066;2022-07-22T12:10:13;7.80;;;2.80;;
40995;SDS011;26723;57.478;12.066;2022-07-22T12:13:28;10.73;;;3.00;;
40995;SDS011;26723;57.478;12.066;2022-07-22T12:16:54;10.13;;;3.35;;
40995;SDS011;26723;57.478;12.066;2022-07-22T12:20:10;9.25;;;3.35;;
40995;SDS011;26723;57.478;12.066;2022-07-22T12:23:22;8.13;;;3.20;;
40995;SDS011;26723;57.478;12.066;2022-07-22T12:26:40;11.02;;;3.60;;
40995;SDS011;26723;57.478;12.066;2022-07-22T12:29:54;8.30;;;3.03;;
40995;SDS011;26723;57.478;12.066;2022-07-22T12:33:12;6.72;;;3.05;;
40995;SDS011;26723;57.478;12.066;2022-07-22T12:36:34;11.13;;;3.08;;
40995;SDS011;26723;57.478;12.066;2022-07-22T12:39:57;7.22;;;3.00;;
40995;SDS011;26723;57.478;12.066;2022-07-22T12:43:12;6.88;;;3.28;;
40995;SDS011;26723;57.478;12.066;2022-07-22T12:46:24;8.05;;;2.60;;
40995;SDS011;26723;57.478;12.066;2022-07-22T12:49:37;9.27;;;3.20;;
40995;SDS011;26723;57.478;12.066;2022-07-22T12:52:51;8.50;;;2.95;;
40995;SDS011;26723;57.478;12.066;2022-07-22T12:56:24;11.75;;;3.42;;
40995;SDS011;26723;57.478;12.066;2022-07-22T12:59:50;7.03;;;3.08;;
40995;SDS011;26723;57.478;12.066;2022-07-22T13:03:06;13.07;;;2.95;;
40995;SDS011;26723;57.478;12.066;2022-07-22T13:06:15;10.38;;;2.92;;
40995;SDS011;26723;57.478;12.066;2022-07-22T13:09:38;10.43;;;3.10;;
40995;SDS011;26723;57.478;12.066;2022-07-22T13:12:52;9.02;;;3.53;;
40995;SDS011;26723;57.478;12.066;2022-07-22T13:16:05;8.85;;;3.10;;
40995;SDS011;26723;57.478;12.066;2022-07-22T13:19:17;8.38;;;3.10;;
40995;SDS011;26723;57.478;12.066;2022-07-22T13:22:29;10.70;;;3.30;;
40995;SDS011;26723;57.478;12.066;2022-07-22T13:25:42;7.18;;;2.67;;
40995;SDS011;26723;57.478;12.066;2022-07-22T13:29:00;10.73;;;3.25;;
40995;SDS011;26723;57.478;12.066;2022-07-22T13:32:13;7.18;;;3.00;;
40995;SDS011;26723;57.478;12.066;2022-07-22T13:35:31;8.80;;;3.20;;
40995;SDS011;26723;57.478;12.066;2022-07-22T13:38:43;7.15;;;2.80;;
40995;SDS011;26723;57.478;12.066;2022-07-22T13:41:57;8.25;;;2.90;;
40995;SDS011;26723;57.478;12.066;2022-07-22T13:45:09;9.75;;;2.67;;
40995;SDS011;26723;57.478;12.066;2022-07-22T13:48:21;8.63;;;3.08;;
40995;SDS011;26723;57.478;12.066;2022-07-22T13:51:30;7.38;;;2.85;;
40995;SDS011;26723;57.478;12.066;2022-07-22T13:54:45;9.15;;;2.90;;
40995;SDS011;26723;57.478;12.066;2022-07-22T13:58:00;10.80;;;2.85;;
40995;SDS011;26723;57.478;12.066;2022-07-22T14:01:12;11.32;;;3.25;;
40995;SDS011;26723;57.478;12.066;2022-07-22T14:04:21;8.32;;;3.10;;
40995;SDS011;26723;57.478;12.066;2022-07-22T14:07:30;8.13;;;2.63;;
40995;SDS011;26723;57.478;12.066;2022-07-22T14:10:40;10.73;;;3.08;;
40995;SDS011;26723;57.478;12.066;2022-07-22T14:13:50;10.25;;;2.90;;
40995;SDS011;26723;57.478;12.066;2022-07-22T14:17:01;10.93;;;3.10;;
40995;SDS011;26723;57.478;12.066;2022-07-22T14:20:11;6.15;;;3.47;;
40995;SDS011;26723;57.478;12.066;2022-07-22T14:23:20;9.68;;;3.22;;
40995;SDS011;26723;57.478;12.066;2022-07-22T14:26:30;6.50;;;2.67;;
40995;SDS011;26723;57.478;12.066;2022-07-22T14:29:43;9.15;;;3.10;;
40995;SDS011;26723;57.478;12.066;2022-07-22T14:32:52;5.68;;;2.78;;
40995;SDS011;26723;57.478;12.066;2022-07-22T14:36:02;8.77;;;3.05;;
40995;SDS011;26723;57.478;12.066;2022-07-22T14:39:11;7.00;;;3.17;;
40995;SDS011;26723;57.478;12.066;2022-07-22T14:42:20;10.02;;;3.25;;
40995;SDS011;26723;57.478;12.066;2022-07-22T14:45:30;9.38;;;3.55;;
40995;SDS011;26723;57.478;12.066;2022-07-22T14:48:40;9.10;;;3.60;;
40995;SDS011;26723;57.478;12.066;2022-07-22T14:51:50;8.40;;;4.07;;
40995;SDS011;26723;57.478;12.066;2022-07-22T14:55:00;10.25;;;3.20;;
40995;SDS011;26723;57.478;12.066;2022-07-22T14:58:09;9.85;;;3.25;;
40995;SDS011;26723;57.478;12.066;2022-07-22T15:01:20;10.30;;;3.30;;
40995;SDS011;26723;57.478;12.066;2022-07-22T15:04:33;7.13;;;3.22;;
40995;SDS011;26723;57.478;12.066;2022-07-22T15:07:44;11.45;;;3.35;;
40995;SDS011;26723;57.478;12.066;2022-07-22T15:10:54;9.80;;;3.70;;
40995;SDS011;26723;57.478;12.066;2022-07-22T15:14:07;10.43;;;3.30;;
40995;SDS011;26723;57.478;12.066;2022-07-22T15:17:18;11.50;;;3.60;;
40995;SDS011;26723;57.478;12.066;2022-07-22T15:20:26;9.75;;;3.58;;
40995;SDS011;26723;57.478;12.066;2022-07-22T15:23:37;11.05;;;3.00;;
40995;SDS011;26723;57.478;12.066;2022-07-22T15:26:46;8.20;;;3.10;;
40995;SDS011;26723;57.478;12.066;2022-07-22T15:29:57;9.07;;;3.22;;
40995;SDS011;26723;57.478;12.066;2022-07-22T15:33:11;8.77;;;3.60;;
40995;SDS011;26723;57.478;12.066;2022-07-22T15:36:27;8.68;;;3.42;;
40995;SDS011;26723;57.478;12.066;2022-07-22T15:39:42;12.32;;;3.80;;
40995;SDS011;26723;57.478;12.066;2022-07-22T15:42:54;10.82;;;3.55;;
40995;SDS011;26723;57.478;12.066;2022-07-22T15:46:06;12.32;;;3.78;;
40995;SDS011;26723;57.478;12.066;2022-07-22T15:49:22;8.55;;;3.58;;
40995;SDS011;26723;57.478;12.066;2022-07-22T15:52:35;7.00;;;3.38;;
40995;SDS011;26723;57.478;12.066;2022-07-22T15:55:49;6.45;;;3.30;;
40995;SDS011;26723;57.478;12.066;2022-07-22T15:59:02;6.90;;;4.10;;
40995;SDS011;26723;57.478;12.066;2022-07-22T16:02:36;4.85;;;3.90;;
40995;SDS011;26723;57.478;12.066;2022-07-22T16:05:50;5.70;;;2.90;;
40995;SDS011;26723;57.478;12.066;2022-07-22T16:09:02;4.85;;;2.80;;
40995;SDS011;26723;57.478;12.066;2022-07-22T16:12:15;6.15;;;3.05;;
40995;SDS011;26723;57.478;12.066;2022-07-22T16:15:27;4.57;;;3.03;;
40995;SDS011;26723;57.478;12.066;2022-07-22T16:18:39;9.45;;;2.95;;
40995;SDS011;26723;57.478;12.066;2022-07-22T16:21:54;7.32;;;3.00;;
40995;SDS011;26723;57.478;12.066;2022-07-22T16:25:05;7.80;;;3.20;;
40995;SDS011;26723;57.478;12.066;2022-07-22T16:28:18;5.93;;;3.03;;
40995;SDS011;26723;57.478;12.066;2022-07-22T16:31:29;6.90;;;2.85;;
40995;SDS011;26723;57.478;12.066;2022-07-22T16:34:40;7.28;;;2.95;;
40995;SDS011;26723;57.478;12.066;2022-07-22T16:37:54;5.55;;;3.17;;
40995;SDS011;26723;57.478;12.066;2022-07-22T16:41:09;7.70;;;3.08;;
40995;SDS011;26723;57.478;12.066;2022-07-22T16:44:22;8.73;;;3.15;;
40995;SDS011;26723;57.478;12.066;2022-07-22T16:47:35;10.68;;;3.72;;
40995;SDS011;26723;57.478;12.066;2022-07-22T16:50:46;9.98;;;3.40;;
40995;SDS011;26723;57.478;12.066;2022-07-22T16:54:00;9.35;;;3.88;;
40995;SDS011;26723;57.478;12.066;2022-07-22T16:57:11;10.70;;;3.53;;
40995;SDS011;26723;57.478;12.066;2022-07-22T17:00:23;10.32;;;3.78;;
40995;SDS011;26723;57.478;12.066;2022-07-22T17:03:35;7.60;;;3.72;;
40995;SDS011;26723;57.478;12.066;2022-07-22T17:06:47;13.85;;;3.72;;
40995;SDS011;26723;57.478;12.066;2022-07-22T17:10:01;7.85;;;3.42;;
40995;SDS011;26723;57.478;12.066;2022-07-22T17:13:14;12.75;;;3.72;;
40995;SDS011;26723;57.478;12.066;2022-07-22T17:16:36;6.55;;;3.70;;
40995;SDS011;26723;57.478;12.066;2022-07-22T17:19:51;12.30;;;4.00;;
40995;SDS011;26723;57.478;12.066;2022-07-22T17:22:59;8.90;;;3.50;;
40995;SDS011;26723;57.478;12.066;2022-07-22T17:26:15;13.27;;;4.53;;
40995;SDS011;26723;57.478;12.066;2022-07-22T17:29:29;7.00;;;3.45;;
40995;SDS011;26723;57.478;12.066;2022-07-22T17:32:44;7.95;;;3.30;;
40995;SDS011;26723;57.478;12.066;2022-07-22T17:35:58;7.35;;;3.50;;
40995;SDS011;26723;57.478;12.066;2022-07-22T17:39:11;9.07;;;3.67;;
40995;SDS011;26723;57.478;12.066;2022-07-22T17:42:34;10.45;;;3.92;;
40995;SDS011;26723;57.478;12.066;2022-07-22T17:45:46;7.50;;;3.50;;
40995;SDS011;26723;57.478;12.066;2022-07-22T17:48:54;13.60;;;3.95;;
40995;SDS011;26723;57.478;12.066;2022-07-22T17:52:03;7.53;;;3.35;;
40995;SDS011;26723;57.478;12.066;2022-07-22T17:55:13;8.13;;;3.85;;
40995;SDS011;26723;57.478;12.066;2022-07-22T17:58:23;8.82;;;3.70;;
40995;SDS011;26723;57.478;12.066;2022-07-22T18:01:31;8.38;;;4.00;;
40995;SDS011;26723;57.478;12.066;2022-07-22T18:04:39;8.18;;;3.85;;
40995;SDS011;26723;57.478;12.066;2022-07-22T18:07:48;7.65;;;3.80;;
40995;SDS011;26723;57.478;12.066;2022-07-22T18:10:56;6.82;;;4.07;;
40995;SDS011;26723;57.478;12.066;2022-07-22T18:14:06;10.10;;;3.83;;
40995;SDS011;26723;57.478;12.066;2022-07-22T18:17:14;9.65;;;4.47;;
40995;SDS011;26723;57.478;12.066;2022-07-22T18:20:22;7.50;;;3.75;;
40995;SDS011;26723;57.478;12.066;2022-07-22T18:23:30;9.90;;;4.00;;
40995;SDS011;26723;57.478;12.066;2022-07-22T18:26:38;9.27;;;4.00;;
40995;SDS011;26723;57.478;12.066;2022-07-22T18:29:48;7.38;;;3.85;;
40995;SDS011;26723;57.478;12.066;2022-07-22T18:32:57;8.10;;;3.70;;
40995;SDS011;26723;57.478;12.066;2022-07-22T18:36:05;8.32;;;3.95;;
40995;SDS011;26723;57.478;12.066;2022-07-22T18:39:14;7.00;;;3.65;;
40995;SDS011;26723;57.478;12.066;2022-07-22T18:42:22;6.93;;;3.45;;
40995;SDS011;26723;57.478;12.066;2022-07-22T18:45:32;6.03;;;3.53;;
40995;SDS011;26723;57.478;12.066;2022-07-22T18:48:40;9.30;;;3.75;;
40995;SDS011;26723;57.478;12.066;2022-07-22T18:51:48;9.73;;;3.88;;
40995;SDS011;26723;57.478;12.066;2022-07-22T18:54:56;7.30;;;3.70;;